sensor_id;sensor_type;location;lat;lon;timestamp;P1;durP1;ratioP1;P2;durP2;ratioP2
51523;SDS011;37610;51.790;21.590;2023-01-28T00:01:57;86.50;;;36.90;;
51523;SDS011;37610;51.790;21.590;2023-01-28T00:06:17;72.50;;;33.20;;
51523;SDS011;37610;51.790;21.590;2023-01-28T00:10:19;73.20;;;32.70;;
51523;SDS011;37610;51.790;21.590;2023-01-28T00:14:21;75.90;;;33.20;;
51523;SDS011;37610;51.790;21.590;2023-01-28T00:18:22;82.40;;;33.80;;
51523;SDS011;37610;51.790;21.590;2023-01-28T00:22:24;60.90;;;27.70;;
51523;SDS011;37610;51.790;21.590;2023-01-28T00:26:25;51.30;;;26.70;;
51523;SDS011;37610;51.790;21.590;2023-01-28T00:30:27;55.40;;;25.50;;
51523;SDS011;37610;51.790;21.590;2023-01-28T00:34:29;60.50;;;29.00;;
51523;SDS011;37610;51.790;21.590;2023-01-28T00:38:31;69.30;;;32.00;;
51523;SDS011;37610;51.790;21.590;2023-01-28T00:42:33;80.10;;;35.50;;
51523;SDS011;37610;51.790;21.590;2023-01-28T00:46:34;85.20;;;37.40;;
51523;SDS011;37610;51.790;21.590;2023-01-28T00:50:36;79.80;;;37.30;;
51523;SDS011;37610;51.790;21.590;2023-01-28T00:54:39;85.20;;;38.00;;
51523;SDS011;37610;51.790;21.590;2023-01-28T00:58:41;91.40;;;37.10;;
51523;SDS011;37610;51.790;21.590;2023-01-28T01:02:43;96.30;;;39.80;;
51523;SDS011;37610;51.790;21.590;2023-01-28T01:06:45;79.70;;;35.30;;
51523;SDS011;37610;51.790;21.590;2023-01-28T01:10:46;78.70;;;33.40;;
51523;SDS011;37610;51.790;21.590;2023-01-28T01:14:48;67.00;;;31.00;;
51523;SDS011;37610;51.790;21.590;2023-01-28T01:18:50;87.50;;;36.40;;
51523;SDS011;37610;51.790;21.590;2023-01-28T01:22:53;83.80;;;36.60;;
51523;SDS011;37610;51.790;21.590;2023-01-28T01:26:54;91.70;;;38.70;;
51523;SDS011;37610;51.790;21.590;2023-01-28T01:31:00;98.90;;;39.90;;
51523;SDS011;37610;51.790;21.590;2023-01-28T01:35:04;91.00;;;39.30;;
51523;SDS011;37610;51.790;21.590;2023-01-28T01:39:12;78.80;;;35.70;;
51523;SDS011;37610;51.790;21.590;2023-01-28T01:43:17;67.80;;;33.30;;
51523;SDS011;37610;51.790;21.590;2023-01-28T01:47:21;69.30;;;33.70;;
51523;SDS011;37610;51.790;21.590;2023-01-28T01:51:31;87.30;;;38.90;;
51523;SDS011;37610;51.790;21.590;2023-01-28T01:55:35;102.70;;;42.40;;
51523;SDS011;37610;51.790;21.590;2023-01-28T01:59:41;97.40;;;41.50;;
51523;SDS011;37610;51.790;21.590;2023-01-28T02:08:20;88.30;;;39.20;;
51523;SDS011;37610;51.790;21.590;2023-01-28T02:12:23;68.80;;;33.30;;
51523;SDS011;37610;51.790;21.590;2023-01-28T02:16:29;71.30;;;34.60;;
51523;SDS011;37610;51.790;21.590;2023-01-28T02:29:48;69.30;;;32.50;;
51523;SDS011;37610;51.790;21.590;2023-01-28T02:34:15;69.50;;;34.70;;
51523;SDS011;37610;51.790;21.590;2023-01-28T02:38:25;62.60;;;31.40;;
51523;SDS011;37610;51.790;21.590;2023-01-28T02:42:33;76.50;;;34.90;;
51523;SDS011;37610;51.790;21.590;2023-01-28T02:46:37;74.40;;;36.10;;
51523;SDS011;37610;51.790;21.590;2023-01-28T02:51:30;76.20;;;36.20;;
51523;SDS011;37610;51.790;21.590;2023-01-28T02:55:49;68.00;;;33.40;;
51523;SDS011;37610;51.790;21.590;2023-01-28T03:04:25;62.80;;;32.70;;
51523;SDS011;37610;51.790;21.590;2023-01-28T03:13:02;74.90;;;34.00;;
51523;SDS011;37610;51.790;21.590;2023-01-28T03:17:35;75.60;;;33.80;;
51523;SDS011;37610;51.790;21.590;2023-01-28T03:22:02;72.60;;;32.70;;
51523;SDS011;37610;51.790;21.590;2023-01-28T03:26:23;74.00;;;34.30;;
51523;SDS011;37610;51.790;21.590;2023-01-28T03:30:54;79.30;;;33.50;;
51523;SDS011;37610;51.790;21.590;2023-01-28T03:35:21;60.70;;;31.20;;
51523;SDS011;37610;51.790;21.590;2023-01-28T03:39:43;71.60;;;33.40;;
51523;SDS011;37610;51.790;21.590;2023-01-28T03:43:44;68.20;;;31.90;;
51523;SDS011;37610;51.790;21.590;2023-01-28T03:47:46;68.00;;;31.70;;
51523;SDS011;37610;51.790;21.590;2023-01-28T03:51:47;65.60;;;32.60;;
51523;SDS011;37610;51.790;21.590;2023-01-28T03:55:49;73.80;;;33.70;;
51523;SDS011;37610;51.790;21.590;2023-01-28T03:59:53;73.90;;;33.60;;
51523;SDS011;37610;51.790;21.590;2023-01-28T04:03:55;69.50;;;31.80;;
51523;SDS011;37610;51.790;21.590;2023-01-28T04:07:56;67.70;;;32.10;;
51523;SDS011;37610;51.790;21.590;2023-01-28T04:11:57;60.90;;;31.70;;
51523;SDS011;37610;51.790;21.590;2023-01-28T04:15:59;57.10;;;29.60;;
51523;SDS011;37610;51.790;21.590;2023-01-28T04:20:03;52.20;;;27.40;;
51523;SDS011;37610;51.790;21.590;2023-01-28T04:24:05;55.90;;;28.60;;
51523;SDS011;37610;51.790;21.590;2023-01-28T04:28:07;60.30;;;30.20;;
51523;SDS011;37610;51.790;21.590;2023-01-28T04:32:09;66.20;;;30.80;;
51523;SDS011;37610;51.790;21.590;2023-01-28T04:36:10;62.90;;;29.80;;
51523;SDS011;37610;51.790;21.590;2023-01-28T04:40:12;66.50;;;33.60;;
51523;SDS011;37610;51.790;21.590;2023-01-28T04:44:13;69.30;;;32.50;;
51523;SDS011;37610;51.790;21.590;2023-01-28T04:48:17;64.00;;;31.80;;
51523;SDS011;37610;51.790;21.590;2023-01-28T04:52:18;71.70;;;32.70;;
51523;SDS011;37610;51.790;21.590;2023-01-28T04:56:20;64.40;;;29.80;;
51523;SDS011;37610;51.790;21.590;2023-01-28T05:00:21;57.40;;;29.20;;
51523;SDS011;37610;51.790;21.590;2023-01-28T05:04:23;55.70;;;28.70;;
51523;SDS011;37610;51.790;21.590;2023-01-28T05:08:24;62.50;;;29.20;;
51523;SDS011;37610;51.790;21.590;2023-01-28T05:12:26;60.60;;;32.10;;
51523;SDS011;37610;51.790;21.590;2023-01-28T05:16:27;74.90;;;35.30;;
51523;SDS011;37610;51.790;21.590;2023-01-28T05:20:29;75.30;;;36.20;;
51523;SDS011;37610;51.790;21.590;2023-01-28T05:24:30;79.70;;;36.70;;
51523;SDS011;37610;51.790;21.590;2023-01-28T05:28:32;84.00;;;41.30;;
51523;SDS011;37610;51.790;21.590;2023-01-28T05:32:33;90.70;;;41.70;;
51523;SDS011;37610;51.790;21.590;2023-01-28T05:36:35;98.90;;;45.10;;
51523;SDS011;37610;51.790;21.590;2023-01-28T05:40:37;87.70;;;40.50;;
51523;SDS011;37610;51.790;21.590;2023-01-28T05:44:38;85.10;;;39.20;;
51523;SDS011;37610;51.790;21.590;2023-01-28T05:48:40;84.70;;;38.20;;
51523;SDS011;37610;51.790;21.590;2023-01-28T05:52:41;76.30;;;38.00;;
51523;SDS011;37610;51.790;21.590;2023-01-28T05:56:43;78.50;;;36.20;;
51523;SDS011;37610;51.790;21.590;2023-01-28T06:00:45;68.40;;;36.30;;
51523;SDS011;37610;51.790;21.590;2023-01-28T06:04:47;79.40;;;37.20;;
51523;SDS011;37610;51.790;21.590;2023-01-28T06:08:48;88.60;;;40.20;;
51523;SDS011;37610;51.790;21.590;2023-01-28T06:12:50;94.10;;;41.00;;
51523;SDS011;37610;51.790;21.590;2023-01-28T06:16:51;114.50;;;46.10;;
51523;SDS011;37610;51.790;21.590;2023-01-28T06:20:53;111.40;;;46.70;;
51523;SDS011;37610;51.790;21.590;2023-01-28T06:24:54;72.50;;;34.50;;
51523;SDS011;37610;51.790;21.590;2023-01-28T06:28:56;79.70;;;34.20;;
51523;SDS011;37610;51.790;21.590;2023-01-28T06:32:57;85.30;;;36.50;;
51523;SDS011;37610;51.790;21.590;2023-01-28T06:36:59;77.60;;;33.40;;
51523;SDS011;37610;51.790;21.590;2023-01-28T06:41:01;160.80;;;52.40;;
51523;SDS011;37610;51.790;21.590;2023-01-28T06:45:02;114.80;;;46.20;;
51523;SDS011;37610;51.790;21.590;2023-01-28T06:49:04;94.00;;;40.00;;
51523;SDS011;37610;51.790;21.590;2023-01-28T06:53:06;105.70;;;45.30;;
51523;SDS011;37610;51.790;21.590;2023-01-28T06:57:07;84.20;;;41.10;;
51523;SDS011;37610;51.790;21.590;2023-01-28T07:01:09;82.20;;;38.90;;
51523;SDS011;37610;51.790;21.590;2023-01-28T07:05:10;88.10;;;40.30;;
51523;SDS011;37610;51.790;21.590;2023-01-28T07:09:12;84.30;;;39.90;;
51523;SDS011;37610;51.790;21.590;2023-01-28T07:13:13;89.30;;;40.30;;
51523;SDS011;37610;51.790;21.590;2023-01-28T07:17:15;82.00;;;36.20;;
51523;SDS011;37610;51.790;21.590;2023-01-28T07:21:16;74.90;;;34.80;;
51523;SDS011;37610;51.790;21.590;2023-01-28T07:25:17;91.70;;;39.40;;
51523;SDS011;37610;51.790;21.590;2023-01-28T07:29:19;70.40;;;34.50;;
51523;SDS011;37610;51.790;21.590;2023-01-28T07:33:21;87.60;;;38.20;;
51523;SDS011;37610;51.790;21.590;2023-01-28T07:37:23;86.90;;;39.10;;
51523;SDS011;37610;51.790;21.590;2023-01-28T07:41:25;93.80;;;40.10;;
51523;SDS011;37610;51.790;21.590;2023-01-28T07:45:26;80.10;;;36.60;;
51523;SDS011;37610;51.790;21.590;2023-01-28T07:49:31;88.20;;;37.80;;
51523;SDS011;37610;51.790;21.590;2023-01-28T07:53:34;72.90;;;34.20;;
51523;SDS011;37610;51.790;21.590;2023-01-28T07:57:36;80.60;;;38.20;;
51523;SDS011;37610;51.790;21.590;2023-01-28T08:01:38;67.20;;;32.60;;
51523;SDS011;37610;51.790;21.590;2023-01-28T08:05:49;89.20;;;41.00;;
51523;SDS011;37610;51.790;21.590;2023-01-28T08:09:53;95.20;;;40.20;;
51523;SDS011;37610;51.790;21.590;2023-01-28T08:13:54;86.70;;;38.30;;
51523;SDS011;37610;51.790;21.590;2023-01-28T08:17:56;98.20;;;45.90;;
51523;SDS011;37610;51.790;21.590;2023-01-28T08:21:59;90.20;;;41.80;;
51523;SDS011;37610;51.790;21.590;2023-01-28T08:26:00;81.60;;;37.50;;
51523;SDS011;37610;51.790;21.590;2023-01-28T08:30:02;114.30;;;46.10;;
51523;SDS011;37610;51.790;21.590;2023-01-28T08:34:04;86.80;;;38.40;;
51523;SDS011;37610;51.790;21.590;2023-01-28T08:38:06;107.10;;;40.20;;
51523;SDS011;37610;51.790;21.590;2023-01-28T08:42:09;99.10;;;37.90;;
51523;SDS011;37610;51.790;21.590;2023-01-28T08:46:10;115.20;;;45.20;;
51523;SDS011;37610;51.790;21.590;2023-01-28T08:50:12;113.00;;;42.60;;
51523;SDS011;37610;51.790;21.590;2023-01-28T08:54:13;122.50;;;44.90;;
51523;SDS011;37610;51.790;21.590;2023-01-28T08:58:15;106.30;;;40.60;;
51523;SDS011;37610;51.790;21.590;2023-01-28T09:02:18;100.60;;;39.80;;
51523;SDS011;37610;51.790;21.590;2023-01-28T09:06:19;145.20;;;48.80;;
51523;SDS011;37610;51.790;21.590;2023-01-28T09:10:21;85.40;;;33.60;;
51523;SDS011;37610;51.790;21.590;2023-01-28T09:14:22;82.80;;;34.90;;
51523;SDS011;37610;51.790;21.590;2023-01-28T09:18:24;94.30;;;38.60;;
51523;SDS011;37610;51.790;21.590;2023-01-28T09:22:25;91.50;;;36.80;;
51523;SDS011;37610;51.790;21.590;2023-01-28T09:26:27;84.90;;;35.20;;
51523;SDS011;37610;51.790;21.590;2023-01-28T09:30:29;89.90;;;35.70;;
51523;SDS011;37610;51.790;21.590;2023-01-28T09:34:31;102.20;;;39.30;;
51523;SDS011;37610;51.790;21.590;2023-01-28T09:38:33;87.20;;;33.50;;
51523;SDS011;37610;51.790;21.590;2023-01-28T09:46:44;71.60;;;30.80;;
51523;SDS011;37610;51.790;21.590;2023-01-28T09:50:47;75.80;;;32.80;;
51523;SDS011;37610;51.790;21.590;2023-01-28T09:54:54;92.50;;;36.40;;
51523;SDS011;37610;51.790;21.590;2023-01-28T09:59:09;85.60;;;35.90;;
51523;SDS011;37610;51.790;21.590;2023-01-28T10:03:24;92.80;;;35.70;;
51523;SDS011;37610;51.790;21.590;2023-01-28T10:24:57;72.20;;;30.70;;
51523;SDS011;37610;51.790;21.590;2023-01-28T10:29:13;80.40;;;32.50;;
51523;SDS011;37610;51.790;21.590;2023-01-28T10:33:21;79.40;;;31.80;;
51523;SDS011;37610;51.790;21.590;2023-01-28T10:37:37;84.90;;;35.10;;
51523;SDS011;37610;51.790;21.590;2023-01-28T10:41:40;79.60;;;32.30;;
51523;SDS011;37610;51.790;21.590;2023-01-28T10:45:47;75.20;;;31.70;;
51523;SDS011;37610;51.790;21.590;2023-01-28T10:49:57;83.10;;;34.70;;
51523;SDS011;37610;51.790;21.590;2023-01-28T10:54:02;79.50;;;32.80;;
51523;SDS011;37610;51.790;21.590;2023-01-28T10:58:22;74.20;;;32.10;;
51523;SDS011;37610;51.790;21.590;2023-01-28T11:02:29;78.20;;;31.20;;
51523;SDS011;37610;51.790;21.590;2023-01-28T11:06:33;68.40;;;31.10;;
51523;SDS011;37610;51.790;21.590;2023-01-28T11:10:35;60.10;;;26.20;;
51523;SDS011;37610;51.790;21.590;2023-01-28T11:14:42;72.20;;;30.40;;
51523;SDS011;37610;51.790;21.590;2023-01-28T11:18:54;82.20;;;31.20;;
51523;SDS011;37610;51.790;21.590;2023-01-28T11:23:05;76.50;;;33.00;;
51523;SDS011;37610;51.790;21.590;2023-01-28T11:27:12;74.60;;;32.40;;
51523;SDS011;37610;51.790;21.590;2023-01-28T11:31:18;84.40;;;34.50;;
51523;SDS011;37610;51.790;21.590;2023-01-28T11:35:25;83.30;;;29.90;;
51523;SDS011;37610;51.790;21.590;2023-01-28T11:39:30;79.80;;;31.60;;
51523;SDS011;37610;51.790;21.590;2023-01-28T11:43:32;78.00;;;32.90;;
51523;SDS011;37610;51.790;21.590;2023-01-28T11:47:40;78.60;;;33.60;;
51523;SDS011;37610;51.790;21.590;2023-01-28T12:09:45;83.90;;;38.60;;
51523;SDS011;37610;51.790;21.590;2023-01-28T12:36:38;61.60;;;28.80;;
51523;SDS011;37610;51.790;21.590;2023-01-28T12:45:12;68.70;;;30.00;;
51523;SDS011;37610;51.790;21.590;2023-01-28T12:49:23;74.80;;;33.60;;
51523;SDS011;37610;51.790;21.590;2023-01-28T12:53:33;72.20;;;32.30;;
51523;SDS011;37610;51.790;21.590;2023-01-28T12:57:41;65.20;;;31.70;;
51523;SDS011;37610;51.790;21.590;2023-01-28T13:06:31;51.30;;;25.30;;
51523;SDS011;37610;51.790;21.590;2023-01-28T13:14:43;69.80;;;34.90;;
51523;SDS011;37610;51.790;21.590;2023-01-28T13:18:46;77.20;;;38.00;;
51523;SDS011;37610;51.790;21.590;2023-01-28T13:22:47;84.80;;;39.90;;
51523;SDS011;37610;51.790;21.590;2023-01-28T13:27:10;91.10;;;48.10;;
51523;SDS011;37610;51.790;21.590;2023-01-28T13:31:14;84.30;;;42.30;;
51523;SDS011;37610;51.790;21.590;2023-01-28T13:35:29;80.40;;;36.90;;
51523;SDS011;37610;51.790;21.590;2023-01-28T13:39:31;101.00;;;42.50;;
51523;SDS011;37610;51.790;21.590;2023-01-28T13:47:38;156.00;;;65.60;;
51523;SDS011;37610;51.790;21.590;2023-01-28T13:51:55;116.00;;;51.00;;
51523;SDS011;37610;51.790;21.590;2023-01-28T13:56:06;99.80;;;45.00;;
51523;SDS011;37610;51.790;21.590;2023-01-28T14:17:52;86.10;;;37.60;;
51523;SDS011;37610;51.790;21.590;2023-01-28T14:21:56;68.80;;;34.40;;
51523;SDS011;37610;51.790;21.590;2023-01-28T14:30:39;72.30;;;33.30;;
51523;SDS011;37610;51.790;21.590;2023-01-28T14:34:47;62.80;;;31.30;;
51523;SDS011;37610;51.790;21.590;2023-01-28T14:38:49;71.80;;;36.30;;
51523;SDS011;37610;51.790;21.590;2023-01-28T14:42:52;73.10;;;34.50;;
51523;SDS011;37610;51.790;21.590;2023-01-28T14:51:38;146.10;;;51.20;;
51523;SDS011;37610;51.790;21.590;2023-01-28T15:04:32;109.20;;;40.50;;
51523;SDS011;37610;51.790;21.590;2023-01-28T15:08:34;104.50;;;41.70;;
51523;SDS011;37610;51.790;21.590;2023-01-28T15:12:36;52.20;;;25.00;;
51523;SDS011;37610;51.790;21.590;2023-01-28T15:16:40;77.40;;;30.50;;
51523;SDS011;37610;51.790;21.590;2023-01-28T15:20:45;48.30;;;23.40;;
51523;SDS011;37610;51.790;21.590;2023-01-28T15:24:48;43.50;;;23.00;;
51523;SDS011;37610;51.790;21.590;2023-01-28T15:28:50;38.60;;;19.60;;
51523;SDS011;37610;51.790;21.590;2023-01-28T15:33:00;27.80;;;14.40;;
51523;SDS011;37610;51.790;21.590;2023-01-28T15:37:08;28.50;;;13.60;;
51523;SDS011;37610;51.790;21.590;2023-01-28T15:41:11;28.20;;;14.00;;
51523;SDS011;37610;51.790;21.590;2023-01-28T15:49:18;23.60;;;11.80;;
51523;SDS011;37610;51.790;21.590;2023-01-28T15:53:19;18.90;;;10.20;;
51523;SDS011;37610;51.790;21.590;2023-01-28T15:57:24;26.10;;;12.60;;
51523;SDS011;37610;51.790;21.590;2023-01-28T16:01:31;23.40;;;11.80;;
51523;SDS011;37610;51.790;21.590;2023-01-28T16:05:37;22.90;;;11.30;;
51523;SDS011;37610;51.790;21.590;2023-01-28T16:09:41;26.70;;;13.60;;
51523;SDS011;37610;51.790;21.590;2023-01-28T16:13:43;31.40;;;14.60;;
51523;SDS011;37610;51.790;21.590;2023-01-28T16:17:48;30.90;;;16.10;;
51523;SDS011;37610;51.790;21.590;2023-01-28T16:21:51;41.30;;;19.80;;
51523;SDS011;37610;51.790;21.590;2023-01-28T16:26:04;31.30;;;15.50;;
51523;SDS011;37610;51.790;21.590;2023-01-28T16:30:19;37.10;;;20.40;;
51523;SDS011;37610;51.790;21.590;2023-01-28T16:34:21;39.10;;;20.60;;
51523;SDS011;37610;51.790;21.590;2023-01-28T16:42:26;25.40;;;12.00;;
51523;SDS011;37610;51.790;21.590;2023-01-28T16:46:27;24.20;;;12.50;;
51523;SDS011;37610;51.790;21.590;2023-01-28T16:50:30;20.70;;;11.10;;
51523;SDS011;37610;51.790;21.590;2023-01-28T16:58:34;25.10;;;12.80;;
51523;SDS011;37610;51.790;21.590;2023-01-28T17:02:36;29.80;;;15.30;;
51523;SDS011;37610;51.790;21.590;2023-01-28T17:06:38;21.90;;;11.30;;
51523;SDS011;37610;51.790;21.590;2023-01-28T17:10:43;20.60;;;11.60;;
51523;SDS011;37610;51.790;21.590;2023-01-28T17:14:44;26.50;;;12.10;;
51523;SDS011;37610;51.790;21.590;2023-01-28T17:18:50;16.30;;;9.70;;
51523;SDS011;37610;51.790;21.590;2023-01-28T17:22:52;22.20;;;11.30;;
51523;SDS011;37610;51.790;21.590;2023-01-28T17:26:53;48.00;;;23.60;;
51523;SDS011;37610;51.790;21.590;2023-01-28T17:30:55;32.30;;;16.60;;
51523;SDS011;37610;51.790;21.590;2023-01-28T17:34:56;39.30;;;19.70;;
51523;SDS011;37610;51.790;21.590;2023-01-28T17:38:58;28.00;;;15.00;;
51523;SDS011;37610;51.790;21.590;2023-01-28T17:42:59;28.00;;;15.10;;
51523;SDS011;37610;51.790;21.590;2023-01-28T17:47:01;18.70;;;10.80;;
51523;SDS011;37610;51.790;21.590;2023-01-28T17:51:02;21.50;;;11.70;;
51523;SDS011;37610;51.790;21.590;2023-01-28T17:55:04;28.10;;;15.80;;
51523;SDS011;37610;51.790;21.590;2023-01-28T17:59:06;22.10;;;13.70;;
51523;SDS011;37610;51.790;21.590;2023-01-28T18:07:15;26.70;;;15.20;;
51523;SDS011;37610;51.790;21.590;2023-01-28T18:11:17;31.10;;;16.20;;
51523;SDS011;37610;51.790;21.590;2023-01-28T18:15:19;48.20;;;21.90;;
51523;SDS011;37610;51.790;21.590;2023-01-28T18:19:20;41.70;;;19.50;;
51523;SDS011;37610;51.790;21.590;2023-01-28T18:23:22;45.90;;;21.70;;
51523;SDS011;37610;51.790;21.590;2023-01-28T18:27:24;34.40;;;18.60;;
51523;SDS011;37610;51.790;21.590;2023-01-28T18:31:25;33.90;;;18.00;;
51523;SDS011;37610;51.790;21.590;2023-01-28T18:35:27;32.40;;;15.90;;
51523;SDS011;37610;51.790;21.590;2023-01-28T18:39:28;20.50;;;10.20;;
51523;SDS011;37610;51.790;21.590;2023-01-28T18:43:31;18.10;;;9.50;;
51523;SDS011;37610;51.790;21.590;2023-01-28T18:47:35;21.60;;;11.90;;
51523;SDS011;37610;51.790;21.590;2023-01-28T18:51:36;25.70;;;12.10;;
51523;SDS011;37610;51.790;21.590;2023-01-28T18:55:38;20.80;;;9.70;;
51523;SDS011;37610;51.790;21.590;2023-01-28T18:59:40;20.20;;;10.50;;
51523;SDS011;37610;51.790;21.590;2023-01-28T19:03:41;22.70;;;12.60;;
51523;SDS011;37610;51.790;21.590;2023-01-28T19:07:43;21.70;;;10.90;;
51523;SDS011;37610;51.790;21.590;2023-01-28T19:11:44;19.50;;;9.40;;
51523;SDS011;37610;51.790;21.590;2023-01-28T19:15:48;20.80;;;11.80;;
51523;SDS011;37610;51.790;21.590;2023-01-28T19:19:49;20.80;;;10.20;;
51523;SDS011;37610;51.790;21.590;2023-01-28T19:28:12;15.70;;;8.80;;
51523;SDS011;37610;51.790;21.590;2023-01-28T19:32:13;14.80;;;8.60;;
51523;SDS011;37610;51.790;21.590;2023-01-28T19:36:15;10.30;;;6.40;;
51523;SDS011;37610;51.790;21.590;2023-01-28T19:40:16;12.00;;;6.90;;
51523;SDS011;37610;51.790;21.590;2023-01-28T19:44:18;12.30;;;7.10;;
51523;SDS011;37610;51.790;21.590;2023-01-28T19:48:20;14.90;;;7.60;;
51523;SDS011;37610;51.790;21.590;2023-01-28T19:52:21;11.80;;;7.30;;
51523;SDS011;37610;51.790;21.590;2023-01-28T19:56:23;10.90;;;5.80;;
51523;SDS011;37610;51.790;21.590;2023-01-28T20:00:26;11.00;;;6.00;;
51523;SDS011;37610;51.790;21.590;2023-01-28T20:04:28;10.20;;;6.40;;
51523;SDS011;37610;51.790;21.590;2023-01-28T20:08:30;14.00;;;7.80;;
51523;SDS011;37610;51.790;21.590;2023-01-28T20:12:32;20.90;;;10.60;;
51523;SDS011;37610;51.790;21.590;2023-01-28T20:16:35;23.80;;;12.20;;
51523;SDS011;37610;51.790;21.590;2023-01-28T20:20:37;21.90;;;10.90;;
51523;SDS011;37610;51.790;21.590;2023-01-28T20:24:38;23.90;;;13.00;;
51523;SDS011;37610;51.790;21.590;2023-01-28T20:28:40;14.20;;;7.70;;
51523;SDS011;37610;51.790;21.590;2023-01-28T20:32:42;16.30;;;9.10;;
51523;SDS011;37610;51.790;21.590;2023-01-28T20:36:46;19.90;;;11.30;;
51523;SDS011;37610;51.790;21.590;2023-01-28T20:40:47;20.30;;;11.30;;
51523;SDS011;37610;51.790;21.590;2023-01-28T20:44:49;17.20;;;10.20;;
51523;SDS011;37610;51.790;21.590;2023-01-28T20:48:55;18.90;;;11.60;;
51523;SDS011;37610;51.790;21.590;2023-01-28T20:52:58;17.00;;;9.50;;
51523;SDS011;37610;51.790;21.590;2023-01-28T20:57:00;16.90;;;10.20;;
51523;SDS011;37610;51.790;21.590;2023-01-28T21:01:02;18.10;;;9.90;;
51523;SDS011;37610;51.790;21.590;2023-01-28T21:05:04;14.90;;;9.30;;
51523;SDS011;37610;51.790;21.590;2023-01-28T21:09:06;15.50;;;9.10;;
51523;SDS011;37610;51.790;21.590;2023-01-28T21:13:08;16.20;;;9.00;;
51523;SDS011;37610;51.790;21.590;2023-01-28T21:17:12;16.30;;;9.20;;
51523;SDS011;37610;51.790;21.590;2023-01-28T21:25:22;14.90;;;8.30;;
51523;SDS011;37610;51.790;21.590;2023-01-28T21:29:24;12.80;;;7.90;;
51523;SDS011;37610;51.790;21.590;2023-01-28T21:33:26;12.40;;;7.20;;
51523;SDS011;37610;51.790;21.590;2023-01-28T21:37:27;13.20;;;7.40;;
51523;SDS011;37610;51.790;21.590;2023-01-28T21:41:29;9.30;;;5.60;;
51523;SDS011;37610;51.790;21.590;2023-01-28T21:45:32;11.20;;;5.60;;
51523;SDS011;37610;51.790;21.590;2023-01-28T21:49:33;11.70;;;6.90;;
51523;SDS011;37610;51.790;21.590;2023-01-28T21:53:35;10.20;;;6.30;;
51523;SDS011;37610;51.790;21.590;2023-01-28T21:57:38;13.30;;;7.10;;
51523;SDS011;37610;51.790;21.590;2023-01-28T22:01:41;10.30;;;6.40;;
51523;SDS011;37610;51.790;21.590;2023-01-28T22:05:43;12.30;;;6.70;;
51523;SDS011;37610;51.790;21.590;2023-01-28T22:09:54;11.90;;;7.10;;
51523;SDS011;37610;51.790;21.590;2023-01-28T22:13:55;11.20;;;6.40;;
51523;SDS011;37610;51.790;21.590;2023-01-28T22:17:57;9.10;;;5.60;;
51523;SDS011;37610;51.790;21.590;2023-01-28T22:21:58;11.50;;;6.60;;
51523;SDS011;37610;51.790;21.590;2023-01-28T22:26:00;11.30;;;6.60;;
51523;SDS011;37610;51.790;21.590;2023-01-28T22:30:02;10.90;;;6.30;;
51523;SDS011;37610;51.790;21.590;2023-01-28T22:34:05;13.30;;;6.50;;
51523;SDS011;37610;51.790;21.590;2023-01-28T22:38:07;12.50;;;6.40;;
51523;SDS011;37610;51.790;21.590;2023-01-28T22:42:09;11.00;;;7.10;;
51523;SDS011;37610;51.790;21.590;2023-01-28T22:46:10;12.00;;;6.70;;
51523;SDS011;37610;51.790;21.590;2023-01-28T22:50:12;10.70;;;6.30;;
51523;SDS011;37610;51.790;21.590;2023-01-28T22:54:14;9.50;;;5.70;;
51523;SDS011;37610;51.790;21.590;2023-01-28T22:58:15;10.10;;;6.00;;
51523;SDS011;37610;51.790;21.590;2023-01-28T23:02:17;13.80;;;7.00;;
51523;SDS011;37610;51.790;21.590;2023-01-28T23:06:19;14.80;;;7.70;;
51523;SDS011;37610;51.790;21.590;2023-01-28T23:10:22;12.90;;;7.30;;
51523;SDS011;37610;51.790;21.590;2023-01-28T23:14:23;9.30;;;6.00;;
51523;SDS011;37610;51.790;21.590;2023-01-28T23:18:43;11.60;;;6.60;;
51523;SDS011;37610;51.790;21.590;2023-01-28T23:23:03;11.20;;;6.20;;
51523;SDS011;37610;51.790;21.590;2023-01-28T23:27:23;11.50;;;6.10;;
51523;SDS011;37610;51.790;21.590;2023-01-28T23:31:25;10.20;;;6.40;;
51523;SDS011;37610;51.790;21.590;2023-01-28T23:35:27;11.80;;;6.40;;
51523;SDS011;37610;51.790;21.590;2023-01-28T23:39:31;12.40;;;7.40;;
51523;SDS011;37610;51.790;21.590;2023-01-28T23:43:34;12.70;;;7.40;;
51523;SDS011;37610;51.790;21.590;2023-01-28T23:47:35;14.60;;;7.20;;
51523;SDS011;37610;51.790;21.590;2023-01-28T23:51:37;12.80;;;7.50;;
51523;SDS011;37610;51.790;21.590;2023-01-28T23:55:39;14.40;;;7.70;;
51523;SDS011;37610;51.790;21.590;2023-01-28T23:59:40;17.60;;;8.20;;
